Preview of NWS' New Version of Forecast
This preview is not operational and should not be used for support decisions.

Terminal Aerodrome Forecast (TAF)

Issued by National Weather Service (NWS)

                            
000
FTUS42 KCAE 141739
TAFOGB
TAF
KOGB 141739Z 1418/1518 06006KT P6SM SCT035
     FM150700 VRB03KT P6SM SCT006 OVC012
     FM150900 VRB03KT P6SM BKN007 OVC012
     FM151500 05006KT P6SM SCT020 BKN040=